Time;durP1;ratioP1;P1;durP2;ratioP2;P2;SDS_P1;SDS_P2;PMS_P1;PMS_P2;Temp;Humidity;BMP_temperature;BMP_pressure;BME280_temperature;BME280_humidity;BME280_pressure;Samples;Min_cycle;Max_cycle;Signal;HPM_P1;HPM_P2
2021/12/20 08:11:55;;;;;;;6.03;0.80;;;4.30;99.90;;;;;;4938668;29;20364;-70
2021/12/20 08:14:21;;;;;;;4.75;0.93;;;4.40;99.90;;;;;;4943987;29;20098;-70
2021/12/20 08:16:47;;;;;;;3.38;1.30;;;4.30;99.90;;;;;;4952507;29;20112;-70
2021/12/20 08:19:13;;;;;;;3.88;0.93;;;4.40;99.90;;;;;;4935953;29;20354;-70
2021/12/20 08:21:39;;;;;;;2.75;0.80;;;4.60;99.90;;;;;;4939082;29;20237;-71
2021/12/20 08:24:05;;;;;;;2.08;0.63;;;4.50;99.90;;;;;;4943715;29;20019;-71
2021/12/20 08:26:31;;;;;;;3.80;0.90;;;4.50;99.90;;;;;;4946639;29;20059;-69
2021/12/20 08:28:57;;;;;;;4.22;0.77;;;4.50;99.90;;;;;;4929200;29;20027;-70
2021/12/20 08:31:23;;;;;;;3.97;0.80;;;4.50;99.90;;;;;;4930613;29;20059;-70
2021/12/20 08:33:50;;;;;;;6.63;1.02;;;4.50;99.90;;;;;;4928706;29;20034;-70
2021/12/20 08:36:16;;;;;;;2.83;0.68;;;4.60;99.90;;;;;;4947372;29;20012;-70
2021/12/20 08:38:42;;;;;;;4.05;0.68;;;4.70;99.90;;;;;;4914677;29;20238;-71
2021/12/20 08:41:11;;;;;;;3.05;0.98;;;4.70;99.90;;;;;;4943249;29;20030;-71
2021/12/20 08:43:37;;;;;;;2.85;0.80;;;4.60;99.90;;;;;;4926313;29;20024;-70
2021/12/20 08:46:03;;;;;;;5.47;1.35;;;4.60;99.90;;;;;;4928352;29;20019;-72
2021/12/20 08:48:31;;;;;;;3.90;1.20;;;4.60;99.90;;;;;;4937593;29;20318;-70
2021/12/20 08:50:58;;;;;;;3.92;0.70;;;4.60;99.90;;;;;;4919268;29;20150;-71
2021/12/20 08:53:24;;;;;;;6.22;0.70;;;4.70;99.90;;;;;;4918841;29;20308;-71
2021/12/20 08:55:50;;;;;;;15.05;2.63;;;4.70;99.90;;;;;;4937667;29;20024;-72
2021/12/20 08:58:16;;;;;;;4.65;1.60;;;4.70;99.90;;;;;;4939549;29;20074;-71
2021/12/20 09:00:41;;;;;;;5.10;1.10;;;4.60;99.90;;;;;;4936087;29;20028;-71
2021/12/20 09:03:07;;;;;;;4.40;1.00;;;4.60;99.90;;;;;;4944106;29;20032;-71
2021/12/20 09:05:34;;;;;;;5.45;0.70;;;4.60;99.90;;;;;;4928423;29;20222;-71
2021/12/20 09:08:01;;;;;;;4.00;0.50;;;4.70;99.90;;;;;;4926878;29;20023;-72
2021/12/20 09:10:29;;;;;;;4.13;0.75;;;4.70;99.90;;;;;;4926432;29;20019;-71
2021/12/20 09:12:55;;;;;;;5.68;0.75;;;4.80;99.90;;;;;;4923792;29;20039;-72
2021/12/20 09:15:21;;;;;;;6.97;1.48;;;4.60;99.90;;;;;;4927830;29;20226;-72
2021/12/20 09:17:51;;;;;;;3.58;0.85;;;4.60;99.90;;;;;;4923171;29;20020;-71
2021/12/20 09:20:21;;;;;;;4.88;0.98;;;4.80;99.90;;;;;;4946368;29;20019;-71
2021/12/20 09:22:51;;;;;;;3.03;0.82;;;5.00;99.90;;;;;;4943332;29;20033;-71
2021/12/20 09:25:19;;;;;;;5.57;0.95;;;4.90;99.90;;;;;;4909962;29;20024;-70
2021/12/20 09:27:45;;;;;;;6.70;2.35;;;4.90;99.90;;;;;;4945879;29;20028;-70
2021/12/20 09:30:12;;;;;;;3.45;1.00;;;4.90;99.90;;;;;;4945578;29;20028;-74
2021/12/20 09:32:37;;;;;;;4.05;0.70;;;4.80;99.90;;;;;;4926262;29;20036;-73
2021/12/20 09:35:04;;;;;;;8.00;0.98;;;4.80;99.90;;;;;;4945919;29;20031;-75
2021/12/20 09:37:30;;;;;;;6.53;1.05;;;4.70;99.90;;;;;;4928701;29;20030;-72
2021/12/20 09:39:56;;;;;;;3.60;1.13;;;4.80;99.90;;;;;;4945683;29;20031;-74
2021/12/20 09:42:22;;;;;;;8.57;1.20;;;4.80;99.90;;;;;;4943842;29;20027;-72
2021/12/20 09:44:49;;;;;;;7.13;0.80;;;4.80;99.90;;;;;;4943533;29;20027;-72
2021/12/20 09:47:15;;;;;;;6.70;0.82;;;5.00;99.90;;;;;;4924392;29;20015;-72
2021/12/20 09:49:41;;;;;;;4.88;0.90;;;5.00;99.90;;;;;;4929224;29;20222;-71
2021/12/20 09:52:07;;;;;;;5.13;1.20;;;4.90;99.90;;;;;;4924415;29;20246;-71
2021/12/20 09:54:33;;;;;;;7.10;1.40;;;5.00;99.90;;;;;;4945308;29;20027;-72
2021/12/20 09:57:02;;;;;;;5.28;1.60;;;4.80;99.90;;;;;;4942014;29;20207;-72
2021/12/20 09:59:30;;;;;;;6.25;0.90;;;4.80;99.90;;;;;;4935031;29;20130;-73
2021/12/20 10:01:58;;;;;;;6.13;1.30;;;4.80;99.90;;;;;;4937022;29;20039;-72
2021/12/20 10:04:25;;;;;;;8.55;1.10;;;4.70;99.90;;;;;;4941620;29;20024;-73
2021/12/20 10:06:56;;;;;;;5.35;0.80;;;4.70;99.90;;;;;;4937449;29;20314;-73
2021/12/20 10:09:28;;;;;;;11.15;2.22;;;4.90;99.90;;;;;;4938603;29;20218;-74
2021/12/20 10:12:15;;;;;;;3.72;1.38;;;5.00;99.90;;;;;;4908295;29;20078;-73
2021/12/20 10:14:59;;;;;;;5.35;0.70;;;5.20;99.90;;;;;;4911905;29;20027;-73
2021/12/20 10:17:29;;;;;;;3.42;0.93;;;5.30;99.90;;;;;;4918145;29;20012;-72
2021/12/20 10:20:10;;;;;;;11.57;0.95;;;5.20;99.90;;;;;;4917822;29;20397;-74
2021/12/20 10:22:36;;;;;;;7.28;1.00;;;5.20;99.90;;;;;;4919623;29;20063;-70
2021/12/20 10:25:02;;;;;;;4.90;0.98;;;5.20;99.90;;;;;;4914159;29;20024;-70
2021/12/20 10:27:32;;;;;;;3.75;0.68;;;5.20;99.90;;;;;;4917095;29;20036;-70
2021/12/20 10:30:00;;;;;;;9.65;0.73;;;5.20;99.90;;;;;;4915549;29;20024;-69
2021/12/20 10:32:43;;;;;;;6.57;1.00;;;5.10;99.90;;;;;;4917512;29;20036;-68
2021/12/20 10:35:33;;;;;;;4.15;1.10;;;5.00;99.90;;;;;;4915775;29;20112;-71
2021/12/20 10:38:06;;;;;;;5.03;0.70;;;5.00;99.90;;;;;;4913541;29;20031;-71
2021/12/20 10:40:32;;;;;;;5.05;1.10;;;5.20;99.90;;;;;;4914509;29;20039;-70
2021/12/20 10:43:00;;;;;;;6.10;1.48;;;5.10;99.90;;;;;;4926732;29;20395;-75
2021/12/20 10:45:26;;;;;;;4.30;0.70;;;5.20;99.90;;;;;;4926513;29;20020;-71
2021/12/20 10:47:52;;;;;;;6.57;1.33;;;5.30;99.90;;;;;;4924976;29;20026;-72
2021/12/20 10:50:31;;;;;;;3.70;0.82;;;5.30;99.90;;;;;;4927369;29;20270;-69
2021/12/20 10:53:20;;;;;;;4.45;0.60;;;5.20;99.90;;;;;;4921961;29;20028;-70
2021/12/20 10:55:48;;;;;;;3.38;0.88;;;5.30;99.90;;;;;;4916591;29;20020;-70
2021/12/20 10:58:28;;;;;;;5.05;0.90;;;5.10;99.90;;;;;;4916059;29;20012;-71
2021/12/20 11:01:14;;;;;;;1.65;0.40;;;5.10;99.90;;;;;;4916720;29;20016;-71
2021/12/20 11:03:42;;;;;;;3.72;1.17;;;5.10;99.90;;;;;;4906208;29;20046;-70
2021/12/20 11:07:03;;;;;;;9.30;1.47;;;5.20;99.90;;;;;;4910185;29;20031;-71
2021/12/20 11:09:08;;;;;;;9.15;1.52;;;5.10;99.90;;;;;;4906536;29;20261;-72
2021/12/20 11:11:36;;;;;;;1.73;0.50;;;5.20;99.90;;;;;;4913314;29;20291;-71
2021/12/20 11:14:05;;;;;;;1.75;0.50;;;5.30;99.90;;;;;;4922533;29;20028;-72
2021/12/20 11:16:38;;;;;;;12.35;1.83;;;5.30;99.90;;;;;;4934628;29;20026;-72
2021/12/20 11:19:15;;;;;;;3.42;0.50;;;5.30;99.90;;;;;;4934522;29;20012;-71
2021/12/20 11:21:47;;;;;;;6.97;2.22;;;5.30;99.90;;;;;;4933595;29;20020;-71
2021/12/20 11:24:22;;;;;;;2.47;1.38;;;5.40;99.90;;;;;;4928921;29;20024;-71
2021/12/20 11:26:49;;;;;;;3.35;0.70;;;5.60;99.90;;;;;;4936242;29;20020;-71
2021/12/20 11:29:16;;;;;;;6.53;0.60;;;5.50;99.90;;;;;;4936384;29;20016;-71
2021/12/20 11:31:42;;;;;;;6.97;0.50;;;5.40;99.90;;;;;;4934698;29;20035;-72
2021/12/20 11:34:08;;;;;;;7.40;1.73;;;5.30;99.90;;;;;;4919604;29;20032;-72
2021/12/20 11:36:34;;;;;;;3.70;1.38;;;5.40;99.90;;;;;;4924335;29;20024;-71
2021/12/20 11:39:00;;;;;;;6.82;0.60;;;5.50;99.90;;;;;;4923907;29;20023;-72
2021/12/20 11:41:27;;;;;;;3.63;0.70;;;5.40;99.90;;;;;;4925623;29;20095;-71
2021/12/20 11:43:55;;;;;;;5.07;0.45;;;5.30;99.90;;;;;;4908934;29;20036;-72
2021/12/20 11:46:24;;;;;;;3.63;0.52;;;5.20;99.90;;;;;;4905925;29;20029;-72
2021/12/20 11:48:51;;;;;;;2.88;0.60;;;5.10;99.90;;;;;;4919062;29;20046;-72
2021/12/20 11:51:18;;;;;;;7.00;0.68;;;5.30;99.90;;;;;;4924014;29;20032;-72
2021/12/20 11:53:44;;;;;;;4.93;0.50;;;5.30;99.90;;;;;;4915016;29;20051;-70
2021/12/20 11:56:10;;;;;;;4.78;0.93;;;5.30;99.90;;;;;;4923692;29;20024;-72
2021/12/20 11:58:39;;;;;;;3.50;0.50;;;5.20;99.90;;;;;;4926106;29;20023;-73
2021/12/20 12:01:06;;;;;;;;;;;5.20;99.90;;;;;;4914481;29;20028;-72
2021/12/20 12:03:38;;;;;;;3.97;1.08;;;5.30;99.90;;;;;;4910653;29;19947;-71
2021/12/20 12:06:06;;;;;;;3.17;0.68;;;5.30;99.90;;;;;;4905808;29;20021;-69
2021/12/20 12:08:41;;;;;;;3.15;0.30;;;5.50;99.90;;;;;;4918001;29;20241;-69
2021/12/20 12:11:07;;;;;;;2.35;0.60;;;5.20;99.90;;;;;;4929651;29;20044;-69
2021/12/20 12:14:06;;;;;;;3.60;0.55;;;5.30;99.90;;;;;;4926479;29;20063;-68
2021/12/20 12:16:58;;;;;;;5.28;0.50;;;5.20;99.90;;;;;;4915325;29;20088;-69
2021/12/20 12:19:42;;;;;;;2.03;0.52;;;5.10;99.90;;;;;;4941566;29;20099;-69
2021/12/20 12:22:26;;;;;;;1.83;0.50;;;5.20;99.90;;;;;;4926904;29;20034;-71
2021/12/20 12:24:53;;;;;;;2.80;0.77;;;5.20;99.90;;;;;;4926704;29;20294;-69
2021/12/20 12:27:19;;;;;;;4.05;0.90;;;5.20;99.90;;;;;;4943989;29;20020;-69
2021/12/20 12:29:45;;;;;;;1.52;0.65;;;5.10;99.90;;;;;;4944597;29;20054;-71
2021/12/20 12:32:11;;;;;;;3.10;0.50;;;5.10;99.90;;;;;;4927289;29;20270;-69
2021/12/20 12:34:43;;;;;;;3.30;0.38;;;5.10;99.90;;;;;;4912165;29;20165;-69
2021/12/20 12:37:29;;;;;;;3.88;0.60;;;5.00;99.90;;;;;;4915596;29;20043;-71
2021/12/20 12:40:25;;;;;;;1.05;0.20;;;5.20;99.90;;;;;;4935688;29;20027;-72
2021/12/20 12:42:56;;;;;;;4.88;0.40;;;5.10;99.90;;;;;;4936438;29;20047;-73
2021/12/20 12:45:49;;;;;;;2.78;0.40;;;5.20;99.90;;;;;;4914165;29;20298;-71
2021/12/20 12:48:43;;;;;;;1.80;0.43;;;5.10;99.90;;;;;;4917486;29;20055;-74
2021/12/20 12:51:18;;;;;;;4.30;0.47;;;5.10;99.90;;;;;;4940709;29;20070;-72
2021/12/20 12:53:45;;;;;;;1.45;0.50;;;5.10;99.90;;;;;;4924848;29;20024;-71
2021/12/20 12:56:29;;;;;;;3.92;0.47;;;5.10;99.90;;;;;;4921027;29;20058;-71
2021/12/20 12:59:14;;;;;;;1.98;0.38;;;5.20;99.90;;;;;;4918530;29;20315;-71
2021/12/20 13:01:56;;;;;;;2.05;0.55;;;5.10;99.90;;;;;;4936082;29;20020;-71
2021/12/20 13:04:49;;;;;;;4.35;1.50;;;5.10;99.90;;;;;;4938359;29;20063;-70
2021/12/20 13:07:19;;;;;;;13.48;2.45;;;5.10;99.90;;;;;;4928167;29;20026;-71
2021/12/20 13:09:47;;;;;;;7.45;1.13;;;5.00;99.90;;;;;;4946466;29;20321;-70
2021/12/20 13:12:26;;;;;;;2.28;0.60;;;5.10;99.90;;;;;;4947623;29;20048;-72
2021/12/20 13:15:06;;;;;;;3.50;0.70;;;5.10;99.90;;;;;;4946484;29;20027;-72
2021/12/20 13:17:38;;;;;;;3.30;0.70;;;5.10;99.90;;;;;;4931454;29;20023;-71
2021/12/20 13:20:35;;;;;;;4.32;1.05;;;5.10;99.90;;;;;;4926343;29;20349;-71
2021/12/20 13:23:10;;;;;;;1.90;0.90;;;5.20;99.90;;;;;;4938771;29;20035;-69
2021/12/20 13:25:45;;;;;;;5.05;0.47;;;5.00;99.90;;;;;;4943067;29;20023;-74
2021/12/20 13:28:19;;;;;;;3.53;0.73;;;5.00;99.90;;;;;;4917927;29;20020;-70
2021/12/20 13:31:09;;;;;;;1.98;0.75;;;5.00;99.90;;;;;;4923725;29;20019;-73
2021/12/20 13:33:36;;;;;;;2.60;1.00;;;4.90;99.90;;;;;;4938245;29;20035;-70
2021/12/20 13:36:06;;;;;;;3.03;0.80;;;5.00;99.90;;;;;;4922465;29;20016;-72
2021/12/20 13:38:35;;;;;;;1.83;0.57;;;4.90;99.90;;;;;;4944089;29;20329;-68
2021/12/20 13:41:03;;;;;;;;;;;5.00;99.90;;;;;;4938307;29;20031;-68
2021/12/20 13:43:35;;;;;;;5.43;1.05;;;4.90;99.90;;;;;;4937860;29;19927;-72
2021/12/20 13:46:10;;;;;;;4.30;1.08;;;4.90;99.90;;;;;;4935014;29;20024;-71
2021/12/20 13:48:45;;;;;;;2.63;0.98;;;4.90;99.90;;;;;;4936953;29;20067;-74
2021/12/20 13:51:12;;;;;;;4.07;1.10;;;5.00;99.90;;;;;;4938257;29;20094;-71
2021/12/20 13:53:37;;;;;;;6.25;2.22;;;5.00;99.90;;;;;;4920050;29;20027;-70
2021/12/20 13:56:04;;;;;;;3.30;0.65;;;5.00;99.90;;;;;;4937237;29;20306;-70
2021/12/20 13:58:30;;;;;;;2.00;0.77;;;4.90;99.90;;;;;;4939784;29;20070;-69
2021/12/20 14:00:58;;;;;;;5.47;1.30;;;4.90;99.90;;;;;;4937908;29;20016;-71
2021/12/20 14:03:25;;;;;;;4.35;1.73;;;4.90;99.90;;;;;;4938963;29;20039;-71
2021/12/20 14:05:51;;;;;;;3.50;1.10;;;5.00;99.90;;;;;;4917706;29;20022;-70
2021/12/20 14:08:21;;;;;;;5.65;1.10;;;4.90;99.90;;;;;;4921699;29;20027;-70
2021/12/20 14:10:48;;;;;;;2.45;0.60;;;5.00;99.90;;;;;;4934647;29;20043;-70
2021/12/20 14:13:24;;;;;;;3.75;1.23;;;4.90;99.90;;;;;;4916084;29;20584;-70
2021/12/20 14:16:01;;;;;;;2.25;0.30;;;5.00;99.90;;;;;;4934505;29;20047;-71
2021/12/20 14:18:38;;;;;;;5.65;2.58;;;5.00;99.90;;;;;;4932345;29;20024;-72
2021/12/20 14:21:05;;;;;;;3.58;1.30;;;4.90;99.90;;;;;;4921791;29;20024;-74
2021/12/20 14:23:34;;;;;;;4.18;1.42;;;4.90;99.90;;;;;;4935826;29;20368;-74
2021/12/20 14:26:01;;;;;;;;;;;5.00;99.90;;;;;;4918897;29;20016;-71
2021/12/20 14:28:28;;;;;;;4.25;1.05;;;4.80;99.90;;;;;;4919565;29;19914;-71
2021/12/20 14:31:07;;;;;;;5.90;0.75;;;4.70;99.90;;;;;;4933984;29;20095;-73
2021/12/20 14:33:51;;;;;;;2.53;0.63;;;4.70;99.90;;;;;;4919625;29;20079;-71
2021/12/20 14:36:18;;;;;;;3.35;0.60;;;4.80;99.90;;;;;;4917678;29;20353;-72
2021/12/20 14:38:56;;;;;;;3.63;0.40;;;4.80;99.90;;;;;;4919080;29;20020;-73
2021/12/20 14:41:36;;;;;;;2.72;0.40;;;4.80;99.90;;;;;;4921625;29;20214;-72
2021/12/20 14:44:16;;;;;;;1.55;0.30;;;4.80;99.90;;;;;;4920004;29;20016;-72
2021/12/20 14:47:01;;;;;;;3.47;0.73;;;4.70;99.90;;;;;;4940844;29;20026;-71
2021/12/20 14:49:41;;;;;;;5.63;0.75;;;4.70;99.90;;;;;;4916473;29;20108;-71
2021/12/20 14:52:21;;;;;;;3.17;0.70;;;4.70;99.90;;;;;;4918560;29;20083;-74
2021/12/20 14:54:55;;;;;;;4.00;0.93;;;4.60;99.90;;;;;;4934735;29;20387;-71
2021/12/20 14:57:22;;;;;;;1.15;0.38;;;4.70;99.90;;;;;;4917856;29;20106;-71
2021/12/20 14:59:52;;;;;;;1.88;0.32;;;4.70;99.90;;;;;;4935235;29;20038;-70
2021/12/20 15:02:41;;;;;;;5.15;0.30;;;4.60;99.90;;;;;;4915747;29;20039;-70
2021/12/20 15:05:14;;;;;;;2.00;0.30;;;4.70;99.90;;;;;;4918366;29;20096;-74
2021/12/20 15:07:41;;;;;;;4.97;1.00;;;4.70;99.90;;;;;;4935732;29;20283;-70
2021/12/20 15:10:09;;;;;;;1.70;0.50;;;4.70;99.90;;;;;;4935011;29;20059;-72
2021/12/20 15:12:35;;;;;;;1.43;0.53;;;4.70;99.90;;;;;;4935211;29;20054;-69
2021/12/20 15:15:01;;;;;;;5.03;0.57;;;4.80;99.90;;;;;;4922962;29;20260;-70
2021/12/20 15:17:26;;;;;;;4.13;0.60;;;4.70;99.90;;;;;;4918267;29;20276;-70
2021/12/20 15:19:52;;;;;;;4.57;1.73;;;4.60;99.90;;;;;;4938201;29;20032;-72
2021/12/20 15:22:18;;;;;;;1.70;0.55;;;4.60;99.90;;;;;;4923635;29;20027;-72
2021/12/20 15:24:44;;;;;;;3.17;0.45;;;4.60;99.90;;;;;;4931783;29;20036;-71
2021/12/20 15:27:11;;;;;;;2.15;0.40;;;4.70;99.90;;;;;;4915302;29;20086;-72
2021/12/20 15:29:38;;;;;;;3.20;1.00;;;4.60;99.90;;;;;;4924748;29;20353;-71
2021/12/20 15:32:04;;;;;;;2.72;0.65;;;4.60;99.90;;;;;;4921662;29;20032;-68
2021/12/20 15:34:30;;;;;;;2.75;0.98;;;4.60;99.90;;;;;;4915838;29;20031;-70
2021/12/20 15:36:56;;;;;;;7.57;1.13;;;4.60;99.90;;;;;;4917080;29;20294;-68
2021/12/20 15:39:23;;;;;;;3.03;0.50;;;4.60;99.90;;;;;;4919399;29;20062;-70
2021/12/20 15:41:56;;;;;;;5.60;0.68;;;4.50;99.90;;;;;;4918719;29;20095;-70
2021/12/20 15:44:22;;;;;;;4.03;0.85;;;4.40;99.90;;;;;;4934489;29;20016;-69
2021/12/20 15:46:48;;;;;;;3.67;0.82;;;4.50;99.90;;;;;;4935434;29;20035;-70
2021/12/20 15:49:14;;;;;;;5.22;0.70;;;4.50;99.90;;;;;;4936692;29;20043;-66
2021/12/20 15:51:39;;;;;;;4.75;0.70;;;4.50;99.90;;;;;;4929536;29;20327;-73
2021/12/20 15:54:05;;;;;;;2.67;0.60;;;4.50;99.90;;;;;;4915053;29;20020;-70
2021/12/20 15:56:31;;;;;;;2.88;0.70;;;4.50;99.90;;;;;;4916866;29;20382;-70
2021/12/20 15:58:57;;;;;;;3.42;0.85;;;4.40;99.90;;;;;;4935383;29;20362;-70
2021/12/20 16:01:23;;;;;;;3.30;1.15;;;4.50;99.90;;;;;;4917980;29;20034;-68
2021/12/20 16:03:51;;;;;;;2.97;0.77;;;4.50;99.90;;;;;;4944190;29;20031;-69
2021/12/20 16:06:17;;;;;;;1.88;0.70;;;4.60;99.90;;;;;;4952551;29;20075;-69
2021/12/20 16:08:43;;;;;;;9.52;3.38;;;4.60;99.90;;;;;;4938538;29;20023;-69
2021/12/20 16:11:10;;;;;;;2.85;1.08;;;4.50;99.90;;;;;;4936479;29;20074;-69
2021/12/20 16:13:36;;;;;;;5.30;1.75;;;4.50;99.90;;;;;;4925796;29;20047;-68
2021/12/20 16:16:01;;;;;;;6.38;0.90;;;4.50;99.90;;;;;;4912116;29;20019;-68
2021/12/20 16:18:28;;;;;;;2.67;0.50;;;4.60;99.90;;;;;;4919289;29;20298;-68
2021/12/20 16:20:54;;;;;;;6.25;0.80;;;4.60;99.90;;;;;;4933873;29;20078;-69
2021/12/20 16:23:20;;;;;;;1.90;0.40;;;4.50;99.90;;;;;;4911827;29;20030;-71
2021/12/20 16:25:47;;;;;;;5.75;1.83;;;4.60;99.90;;;;;;4912685;29;20028;-71
2021/12/20 16:28:15;;;;;;;4.35;0.70;;;4.60;99.90;;;;;;4909506;29;20020;-72
2021/12/20 16:30:41;;;;;;;4.05;1.02;;;4.70;99.90;;;;;;4919042;29;20032;-70
2021/12/20 16:33:10;;;;;;;5.65;1.63;;;4.70;99.90;;;;;;4919391;29;20063;-70
2021/12/20 16:35:37;;;;;;;2.78;0.57;;;4.70;99.90;;;;;;4916453;29;20126;-70
2021/12/20 16:38:03;;;;;;;4.20;1.15;;;4.60;99.90;;;;;;4923979;29;20247;-69
2021/12/20 16:40:28;;;;;;;2.40;0.60;;;4.60;99.90;;;;;;4938918;29;20114;-70
2021/12/20 16:42:56;;;;;;;4.13;1.77;;;4.80;99.90;;;;;;4922627;29;20191;-70
2021/12/20 16:48:33;;;;;;;3.42;0.70;;;4.70;99.90;;;;;;4858649;29;20040;-74
2021/12/20 16:51:00;;;;;;;4.75;0.90;;;4.50;99.90;;;;;;4861349;29;20021;-72
2021/12/20 16:53:27;;;;;;;4.15;0.85;;;4.50;99.90;;;;;;4863131;29;20250;-69
2021/12/20 16:55:53;;;;;;;5.72;0.95;;;4.40;99.90;;;;;;4865687;29;20045;-70
2021/12/20 16:58:21;;;;;;;3.75;1.45;;;4.50;99.90;;;;;;4867045;29;20045;-73
2021/12/20 17:00:47;;;;;;;5.93;0.63;;;4.40;99.90;;;;;;4851792;29;20057;-70
2021/12/20 17:08:24;;;;;;;3.63;0.88;;;4.40;99.90;;;;;;4858905;29;20312;-71
2021/12/20 17:10:52;;;;;;;1.70;0.45;;;4.40;99.90;;;;;;4829244;29;20050;-71
2021/12/20 17:13:20;;;;;;;7.18;0.70;;;4.40;99.90;;;;;;4844608;29;20049;-73
2021/12/20 17:15:46;;;;;;;;;;;4.30;99.90;;;;;;4845014;29;20394;-71
2021/12/20 17:18:30;;;;;;;5.75;1.02;;;4.40;99.90;;;;;;4851369;29;19912;-72
2021/12/20 17:20:56;;;;;;;7.80;2.72;;;4.40;99.90;;;;;;4917927;29;20020;-71
2021/12/20 17:23:22;;;;;;;3.35;0.70;;;4.40;99.90;;;;;;4920490;29;20063;-69
2021/12/20 17:25:48;;;;;;;3.10;1.40;;;4.30;99.90;;;;;;4922258;29;20075;-70
2021/12/20 17:28:33;;;;;;;5.13;1.65;;;4.40;99.90;;;;;;4915286;29;20361;-71
2021/12/20 17:30:58;;;;;;;4.00;1.65;;;4.40;99.90;;;;;;4923300;29;20059;-72
2021/12/20 17:33:25;;;;;;;2.88;0.90;;;4.30;99.90;;;;;;4905072;29;20031;-72
2021/12/20 17:35:50;;;;;;;3.97;0.90;;;4.40;99.90;;;;;;4922668;29;20027;-71
2021/12/20 17:38:17;;;;;;;3.20;1.10;;;4.40;99.90;;;;;;4906180;29;20416;-73
2021/12/20 17:40:43;;;;;;;4.95;1.40;;;4.40;99.90;;;;;;4910665;29;20328;-73
2021/12/20 17:43:09;;;;;;;6.30;0.80;;;4.40;99.90;;;;;;4921715;29;20047;-73
2021/12/20 17:45:35;;;;;;;4.32;0.98;;;4.30;99.90;;;;;;4922285;29;20095;-71
2021/12/20 17:48:01;;;;;;;8.82;3.30;;;4.30;99.90;;;;;;4920686;29;20019;-74
2021/12/20 17:50:27;;;;;;;3.95;1.17;;;4.40;99.90;;;;;;4925862;29;20036;-75
2021/12/20 17:52:54;;;;;;;3.65;1.05;;;4.30;99.90;;;;;;4918853;29;20076;-74
2021/12/20 17:55:20;;;;;;;4.50;1.02;;;4.50;99.90;;;;;;4906438;29;20090;-72
2021/12/20 17:57:46;;;;;;;5.82;1.67;;;4.50;99.90;;;;;;4921625;29;20059;-71
2021/12/20 18:00:15;;;;;;;4.85;1.25;;;4.40;99.90;;;;;;4920841;29;20020;-72
2021/12/20 18:02:41;;;;;;;2.40;0.60;;;4.50;99.90;;;;;;4922961;29;20143;-71
2021/12/20 18:05:10;;;;;;;2.35;1.10;;;4.50;99.90;;;;;;4918137;29;20445;-71
2021/12/20 18:07:38;;;;;;;2.47;0.70;;;4.50;99.90;;;;;;4903657;29;20063;-72
2021/12/20 18:10:04;;;;;;;2.13;0.57;;;4.50;99.90;;;;;;4923823;29;20158;-71
2021/12/20 18:12:31;;;;;;;2.90;1.15;;;4.40;99.90;;;;;;4918083;29;20415;-73
2021/12/20 18:14:57;;;;;;;5.18;0.80;;;4.40;99.90;;;;;;4905008;29;20165;-75
2021/12/20 18:17:23;;;;;;;3.67;1.10;;;4.40;99.90;;;;;;4912002;29;20047;-75
2021/12/20 18:19:49;;;;;;;3.13;0.93;;;4.30;99.90;;;;;;4921611;29;20230;-72
2021/12/20 18:22:14;;;;;;;3.70;0.82;;;4.30;99.90;;;;;;4921673;29;20107;-72
2021/12/20 18:24:41;;;;;;;3.88;0.82;;;4.30;99.90;;;;;;4921883;29;20055;-76
2021/12/20 18:27:07;;;;;;;3.75;1.00;;;4.30;99.90;;;;;;4924717;29;20061;-72
2021/12/20 18:29:33;;;;;;;3.08;0.85;;;4.20;99.90;;;;;;4919744;29;20024;-71
2021/12/20 18:31:59;;;;;;;2.58;0.80;;;4.20;99.90;;;;;;4925985;29;20031;-74
2021/12/20 18:34:26;;;;;;;4.95;1.00;;;4.20;99.90;;;;;;4918722;29;20291;-75
2021/12/20 18:36:52;;;;;;;1.90;0.90;;;4.20;99.90;;;;;;4924170;29;20059;-75
2021/12/20 18:39:18;;;;;;;4.50;0.77;;;4.10;99.90;;;;;;4927050;29;20036;-73
2021/12/20 18:41:44;;;;;;;3.17;0.85;;;4.10;99.90;;;;;;4918231;29;20028;-72
2021/12/20 18:44:11;;;;;;;3.33;0.90;;;4.10;99.90;;;;;;4924451;29;20058;-74
2021/12/20 18:46:39;;;;;;;4.55;0.63;;;4.20;99.90;;;;;;4921753;29;20193;-74
2021/12/20 18:49:08;;;;;;;1.88;0.70;;;4.20;99.90;;;;;;4907421;29;20051;-75
2021/12/20 18:51:34;;;;;;;2.55;0.77;;;4.20;99.90;;;;;;4915766;29;20024;-72
2021/12/20 18:54:00;;;;;;;2.60;0.80;;;4.20;99.90;;;;;;4923931;29;20103;-74
2021/12/20 18:56:27;;;;;;;4.05;1.05;;;4.10;99.90;;;;;;4916459;29;20016;-74
2021/12/20 18:59:00;;;;;;;1.92;1.10;;;4.10;99.90;;;;;;4927034;29;20036;-74
2021/12/20 19:01:27;;;;;;;3.60;0.75;;;4.10;99.90;;;;;;4924835;29;20062;-73
2021/12/20 19:03:54;;;;;;;3.58;0.70;;;4.10;99.90;;;;;;4917962;29;20036;-75
2021/12/20 19:06:22;;;;;;;2.65;0.80;;;4.00;99.90;;;;;;4920634;29;20019;-78
2021/12/20 19:08:52;;;;;;;1.75;0.60;;;4.00;99.90;;;;;;4911284;29;20031;-74
2021/12/20 19:11:33;;;;;;;1.90;0.68;;;4.00;99.90;;;;;;4905057;29;20041;-73
2021/12/20 19:14:04;;;;;;;1.52;0.55;;;4.00;99.90;;;;;;4906647;29;20359;-74
2021/12/20 19:16:31;;;;;;;1.67;0.80;;;3.90;99.90;;;;;;4913844;29;20051;-75
2021/12/20 19:18:58;;;;;;;6.93;1.38;;;3.90;99.90;;;;;;4906474;29;20021;-73
2021/12/20 19:21:26;;;;;;;3.50;0.80;;;3.90;99.90;;;;;;4906911;29;20154;-75
2021/12/20 19:23:51;;;;;;;2.40;0.70;;;3.90;99.90;;;;;;4908721;29;20635;-74
2021/12/20 19:26:17;;;;;;;3.05;1.13;;;3.90;99.90;;;;;;4919860;29;20047;-75
2021/12/20 19:28:43;;;;;;;3.45;0.73;;;3.90;99.90;;;;;;4925167;29;20263;-74
2021/12/20 19:31:09;;;;;;;1.90;0.90;;;3.90;99.90;;;;;;4924517;29;20048;-75
2021/12/20 19:33:35;;;;;;;3.70;0.80;;;3.80;99.90;;;;;;4923690;29;20095;-74
2021/12/20 19:36:01;;;;;;;3.65;0.90;;;3.90;99.90;;;;;;4924713;29;20027;-74
2021/12/20 19:38:27;;;;;;;3.60;1.40;;;3.90;99.90;;;;;;4922849;29;20091;-72
2021/12/20 19:40:55;;;;;;;5.28;1.13;;;3.90;99.90;;;;;;4924863;29;20048;-73
2021/12/20 19:43:21;;;;;;;4.03;0.90;;;3.90;99.90;;;;;;4924025;29;20275;-74
2021/12/20 19:45:48;;;;;;;2.75;1.05;;;3.90;99.90;;;;;;4925135;29;20027;-76
2021/12/20 19:48:19;;;;;;;3.53;1.05;;;3.90;99.90;;;;;;4915615;29;20032;-76
2021/12/20 19:50:47;;;;;;;5.60;1.65;;;3.90;99.90;;;;;;4923990;29;20030;-77
2021/12/20 19:53:13;;;;;;;2.67;0.95;;;3.90;99.90;;;;;;4925113;29;20067;-76
2021/12/20 19:55:39;;;;;;;3.05;1.30;;;3.90;99.90;;;;;;4925161;29;20059;-76
2021/12/20 19:58:06;;;;;;;2.13;0.70;;;3.80;99.90;;;;;;4909131;29;20028;-76
2021/12/20 20:00:33;;;;;;;3.78;1.02;;;3.80;99.90;;;;;;4922422;29;20092;-74
2021/12/20 20:02:59;;;;;;;3.30;1.23;;;3.80;99.90;;;;;;4924695;29;20032;-74
2021/12/20 20:05:26;;;;;;;3.38;1.02;;;3.80;99.90;;;;;;4924995;29;20082;-73
2021/12/20 20:07:52;;;;;;;5.20;1.10;;;3.90;99.90;;;;;;4904802;29;20419;-73
2021/12/20 20:10:20;;;;;;;2.22;0.77;;;3.90;99.90;;;;;;4928812;29;20056;-74
2021/12/20 20:12:46;;;;;;;4.03;1.38;;;3.90;99.90;;;;;;4948284;29;20055;-73
2021/12/20 20:15:12;;;;;;;8.63;1.60;;;4.00;99.90;;;;;;4947729;29;20043;-73
2021/12/20 20:17:38;;;;;;;2.63;1.13;;;4.20;99.90;;;;;;4934569;29;20367;-73
2021/12/20 20:20:06;;;;;;;2.72;1.52;;;4.10;99.90;;;;;;4912223;29;20028;-73
2021/12/20 20:22:31;;;;;;;2.97;1.10;;;4.00;99.90;;;;;;4930170;29;20043;-75
2021/12/20 20:24:58;;;;;;;4.43;1.23;;;4.20;99.90;;;;;;4931348;29;20339;-74
2021/12/20 20:27:26;;;;;;;1.38;0.73;;;4.20;99.90;;;;;;4918925;29;20030;-73
2021/12/20 20:29:52;;;;;;;1.83;1.10;;;4.10;99.90;;;;;;4929462;29;20087;-75
2021/12/20 20:32:18;;;;;;;1.55;0.82;;;4.00;99.90;;;;;;4923631;29;20035;-74
2021/12/20 20:34:44;;;;;;;3.70;1.00;;;4.00;99.90;;;;;;4930658;29;20102;-75
2021/12/20 20:37:29;;;;;;;3.92;1.23;;;3.90;99.90;;;;;;4921875;29;20024;-75
2021/12/20 20:40:00;;;;;;;3.80;1.65;;;3.90;99.90;;;;;;4943094;29;20024;-75
2021/12/20 20:42:27;;;;;;;4.97;1.45;;;3.90;99.90;;;;;;4930084;29;20027;-75
2021/12/20 20:44:54;;;;;;;2.03;1.20;;;3.80;99.90;;;;;;4930986;29;20394;-75
2021/12/20 20:47:21;;;;;;;3.58;1.55;;;3.80;99.90;;;;;;4920045;29;20337;-75
2021/12/20 20:49:47;;;;;;;2.20;1.08;;;3.90;99.90;;;;;;4927666;29;20019;-75
2021/12/20 20:52:13;;;;;;;5.28;1.58;;;3.80;99.90;;;;;;4922083;29;20059;-75
2021/12/20 20:54:40;;;;;;;3.45;1.17;;;3.70;99.90;;;;;;4926264;29;20317;-75
2021/12/20 20:57:06;;;;;;;1.67;1.20;;;3.70;99.90;;;;;;4922616;29;20228;-75
2021/12/20 20:59:32;;;;;;;2.00;1.20;;;3.70;99.90;;;;;;4911176;29;20020;-75
2021/12/20 21:01:58;;;;;;;5.45;1.77;;;3.60;99.90;;;;;;4928751;29;20036;-75
2021/12/20 21:04:25;;;;;;;2.45;0.98;;;3.60;99.90;;;;;;4934693;29;20087;-75
2021/12/20 21:07:04;;;;;;;4.93;1.10;;;3.50;99.90;;;;;;4930173;29;20019;-73
2021/12/20 21:09:41;;;;;;;4.28;1.25;;;3.50;99.90;;;;;;4929559;29;20067;-74
2021/12/20 21:12:11;;;;;;;5.15;1.23;;;3.60;99.90;;;;;;4947665;29;20099;-74
2021/12/20 21:14:38;;;;;;;3.47;1.15;;;3.60;99.90;;;;;;4929682;29;20028;-74
2021/12/20 21:17:05;;;;;;;2.00;1.15;;;3.50;99.90;;;;;;4926302;29;20020;-74
2021/12/20 21:19:31;;;;;;;4.72;1.75;;;3.50;99.90;;;;;;4917864;29;20043;-75
2021/12/20 21:21:57;;;;;;;3.03;1.63;;;3.50;99.90;;;;;;4927902;29;20325;-74
2021/12/20 21:24:23;;;;;;;5.45;2.78;;;3.60;99.90;;;;;;4921806;29;20024;-75
2021/12/20 21:26:50;;;;;;;5.90;1.38;;;3.50;99.90;;;;;;4925523;29;20030;-74
2021/12/20 21:29:16;;;;;;;3.70;0.82;;;3.50;99.90;;;;;;4911384;29;20028;-75